Time;durP1;ratioP1;P1;durP2;ratioP2;P2;SDS_P1;SDS_P2;PMS_P1;PMS_P2;Temp;Humidity;BMP_temperature;BMP_pressure;BME280_temperature;BME280_humidity;BME280_pressure;Samples;Min_cycle;Max_cycle;Signal;HPM_P1;HPM_P2
2021/03/04 00:00:11;;;;;;;180.43;62.72;;;;;;;4.05;96.44;102488.47;5004515;28;20127;-75
2021/03/04 00:02:36;;;;;;;190.35;65.57;;;;;;;4.27;96.18;102530.63;5006467;28;20375;-75
2021/03/04 00:05:05;;;;;;;191.57;68.35;;;;;;;4.29;96.60;102523.47;5003078;28;20530;-75
2021/03/04 00:07:30;;;;;;;205.18;67.63;;;;;;;4.25;96.30;102505.19;5000980;28;20049;-75
2021/03/04 00:09:56;;;;;;;210.68;68.53;;;;;;;4.02;95.58;102462.19;5006596;28;20451;-75
2021/03/04 00:12:21;;;;;;;226.30;73.18;;;;;;;4.12;96.67;102491.69;5004427;28;20085;-75
2021/03/04 00:14:47;;;;;;;222.95;70.85;;;;;;;4.09;96.36;102475.97;4997853;28;20465;-75
2021/03/04 00:17:12;;;;;;;229.15;72.57;;;;;;;4.19;97.39;102498.41;5001749;28;20101;-75
2021/03/04 00:19:37;;;;;;;256.73;77.65;;;;;;;4.21;96.53;102493.91;5003753;28;20404;-75
2021/03/04 00:22:03;;;;;;;251.93;77.90;;;;;;;4.23;97.07;102486.78;5004456;28;20091;-75
2021/03/04 00:24:29;;;;;;;262.98;80.28;;;;;;;4.23;97.07;102483.25;5004148;28;20033;-75
2021/03/04 00:26:54;;;;;;;242.30;76.97;;;;;;;4.08;96.64;102455.78;5002209;28;20037;-75
2021/03/04 00:29:20;;;;;;;273.60;80.53;;;;;;;4.20;96.48;102486.91;5004553;28;20088;-75
2021/03/04 00:31:45;;;;;;;237.35;74.30;;;;;;;4.20;97.17;102491.34;5003378;28;20492;-75
2021/03/04 00:34:11;;;;;;;238.18;74.80;;;;;;;4.17;96.98;102497.59;5004773;28;20085;-75
2021/03/04 00:36:36;;;;;;;262.45;79.85;;;;;;;4.14;97.28;102503.91;5002911;28;20066;-75
2021/03/04 00:39:05;;;;;;;280.92;81.25;;;;;;;4.10;97.76;102504.97;5002205;28;20038;-75
2021/03/04 00:41:31;;;;;;;272.45;83.00;;;;;;;3.86;98.59;102469.97;5004733;28;20069;-74
2021/03/04 00:43:56;;;;;;;262.27;81.10;;;;;;;4.18;98.09;102517.81;5004900;28;20036;-75
2021/03/04 00:46:22;;;;;;;255.52;78.97;;;;;;;4.14;97.73;102505.66;5001941;28;20061;-75
2021/03/04 00:48:47;;;;;;;272.58;79.95;;;;;;;4.08;98.05;102479.56;5000164;28;20034;-75
2021/03/04 00:51:14;;;;;;;263.33;81.82;;;;;;;4.08;97.20;102485.69;5004615;28;20068;-75
2021/03/04 00:53:40;;;;;;;246.65;76.53;;;;;;;4.28;97.01;102503.25;5003171;28;20057;-75
2021/03/04 00:56:05;;;;;;;229.40;72.45;;;;;;;3.77;97.36;102413.16;5001011;28;20345;-75
2021/03/04 00:58:31;;;;;;;238.45;76.75;;;;;;;4.28;96.31;102490.03;5000940;28;20047;-75
2021/03/04 01:00:57;;;;;;;246.20;76.50;;;;;;;3.98;96.50;102447.41;5002788;28;20041;-75
2021/03/04 01:03:22;;;;;;;263.00;78.25;;;;;;;4.23;97.21;102494.69;5004116;28;20036;-75
2021/03/04 01:05:48;;;;;;;254.82;79.63;;;;;;;4.18;97.35;102494.03;4999430;28;20483;-75
2021/03/04 01:08:13;;;;;;;229.70;73.82;;;;;;;4.18;97.47;102482.63;5003610;28;20030;-75
2021/03/04 01:10:40;;;;;;;229.18;70.78;;;;;;;4.21;97.34;102479.81;5003709;28;20524;-75
2021/03/04 01:13:07;;;;;;;208.38;67.80;;;;;;;4.19;97.51;102485.19;5002693;28;20030;-75
2021/03/04 01:15:33;;;;;;;223.18;67.78;;;;;;;3.91;97.80;102436.25;4998187;28;20038;-75
2021/03/04 01:18:01;;;;;;;225.90;71.90;;;;;;;4.23;97.14;102486.78;5002925;28;20025;-69
2021/03/04 01:20:28;;;;;;;223.95;71.72;;;;;;;4.11;97.66;102448.56;5003168;28;20022;-69
2021/03/04 01:22:53;;;;;;;233.48;71.43;;;;;;;4.24;96.66;102477.91;5000077;28;20088;-69
2021/03/04 01:25:19;;;;;;;238.60;72.82;;;;;;;4.02;97.99;102451.63;5000662;28;20081;-69
2021/03/04 01:27:47;;;;;;;228.90;70.38;;;;;;;4.17;97.34;102470.34;5003961;28;20036;-69
2021/03/04 01:30:13;;;;;;;219.07;68.90;;;;;;;4.23;97.38;102480.63;5001652;28;20053;-69
2021/03/04 01:32:39;;;;;;;238.57;73.18;;;;;;;4.23;97.35;102480.63;5005407;28;20034;-69
2021/03/04 01:35:06;;;;;;;222.68;68.63;;;;;;;4.11;97.87;102467.03;4999864;28;20025;-69
2021/03/04 01:37:33;;;;;;;226.57;69.85;;;;;;;4.22;97.92;102474.47;5004608;28;20126;-69
2021/03/04 01:39:58;;;;;;;231.30;70.28;;;;;;;4.22;97.29;102469.19;4999755;28;20026;-69
2021/03/04 01:42:24;;;;;;;207.05;68.45;;;;;;;3.98;97.21;102431.56;5001834;28;20557;-69
2021/03/04 01:44:49;;;;;;;216.30;67.40;;;;;;;3.95;97.33;102426.41;5000842;28;20483;-69
2021/03/04 01:47:16;;;;;;;187.88;62.70;;;;;;;4.24;96.58;102464.72;5001304;28;20396;-69
2021/03/04 01:49:41;;;;;;;209.63;63.00;;;;;;;4.20;97.25;102457.84;5004342;28;20119;-69
2021/03/04 01:52:07;;;;;;;201.73;65.00;;;;;;;4.16;96.99;102442.22;5004776;28;20293;-69
2021/03/04 01:54:33;;;;;;;219.35;66.30;;;;;;;3.91;97.56;102411.66;5000758;28;20049;-69
2021/03/04 01:56:59;;;;;;;219.07;67.40;;;;;;;4.00;97.17;102429.69;5000489;28;20416;-69
2021/03/04 01:59:24;;;;;;;228.45;68.03;;;;;;;4.07;97.46;102431.13;4999311;28;20022;-69
2021/03/04 02:01:50;;;;;;;228.60;71.40;;;;;;;4.05;98.07;102432.13;5003699;28;20025;-69
2021/03/04 02:04:16;;;;;;;233.48;69.85;;;;;;;4.04;97.89;102427.78;5001000;28;20327;-69
2021/03/04 02:07:06;;;;;;;243.27;69.30;;;;;;;4.06;97.76;102421.50;4999767;28;20848;-69
2021/03/04 02:09:33;;;;;;;245.07;70.22;;;;;;;3.74;98.27;102370.16;5001259;28;20032;-69
2021/03/04 02:12:12;;;;;;;240.18;67.10;;;;;;;4.02;98.69;102408.50;5003221;28;20599;-69
2021/03/04 02:14:53;;;;;;;258.92;71.85;;;;;;;3.85;98.51;102404.88;5001010;28;20022;-69
2021/03/04 02:17:22;;;;;;;281.17;75.82;;;;;;;3.94;99.44;102420.28;4984898;28;20503;-70
2021/03/04 02:19:53;;;;;;;235.85;68.85;;;;;;;3.98;99.38;102418.34;5001961;28;20040;-69
2021/03/04 02:22:27;;;;;;;244.55;66.53;;;;;;;3.98;99.65;102413.94;5002221;28;20026;-69
2021/03/04 02:25:03;;;;;;;238.27;69.30;;;;;;;4.02;99.17;102416.41;4999421;28;20497;-69
2021/03/04 02:27:29;;;;;;;244.88;69.60;;;;;;;3.81;99.32;102372.44;5001355;28;20060;-69
2021/03/04 02:30:00;;;;;;;234.75;70.07;;;;;;;4.14;98.84;102405.25;5000069;28;20472;-69
2021/03/04 02:32:27;;;;;;;255.50;74.25;;;;;;;4.09;98.62;102397.56;5002223;28;20118;-69
2021/03/04 02:35:11;;;;;;;243.02;72.82;;;;;;;4.11;99.43;102397.50;4998066;28;20044;-69
2021/03/04 02:37:41;;;;;;;250.65;74.80;;;;;;;4.10;98.62;102398.44;5002474;28;20026;-69
2021/03/04 02:40:12;;;;;;;255.98;75.28;;;;;;;3.96;99.24;102384.09;4996055;28;20068;-69
2021/03/04 02:42:39;;;;;;;234.30;70.53;;;;;;;4.09;98.82;102384.34;5017226;28;20041;-69
2021/03/04 02:45:07;;;;;;;238.95;71.75;;;;;;;4.07;98.57;102380.91;4998599;28;20111;-69
2021/03/04 02:47:33;;;;;;;227.27;71.22;;;;;;;4.05;98.41;102388.09;5001645;28;20492;-69
2021/03/04 02:49:59;;;;;;;238.30;70.82;;;;;;;4.02;98.76;102380.31;5002901;28;20831;-69
2021/03/04 02:52:25;;;;;;;248.45;72.93;;;;;;;4.03;98.09;102366.16;5010800;28;20029;-75
2021/03/04 02:54:52;;;;;;;241.25;67.97;;;;;;;4.05;98.33;102360.78;5005889;28;20046;-75
2021/03/04 02:57:20;;;;;;;249.63;71.72;;;;;;;4.08;98.52;102355.38;5005441;28;20022;-74
2021/03/04 02:59:48;;;;;;;269.38;74.03;;;;;;;4.02;98.55;102356.53;5004342;28;20511;-74
2021/03/04 03:02:15;;;;;;;273.17;74.18;;;;;;;4.01;99.02;102343.38;5007428;28;20037;-75
2021/03/04 03:04:42;;;;;;;254.65;74.03;;;;;;;4.01;98.86;102338.09;5006864;28;20507;-75
2021/03/04 03:07:09;;;;;;;256.52;73.38;;;;;;;3.70;98.73;102292.03;5004869;28;20269;-74
2021/03/04 03:09:37;;;;;;;240.05;69.40;;;;;;;3.91;98.71;102321.84;5010599;28;20033;-74
2021/03/04 03:12:04;;;;;;;222.50;66.72;;;;;;;3.92;98.03;102320.91;5019728;28;20076;-74
2021/03/04 03:14:30;;;;;;;214.88;64.88;;;;;;;4.11;98.34;102340.22;5006553;28;20103;-74
2021/03/04 03:16:58;;;;;;;222.23;68.95;;;;;;;4.15;97.42;102335.63;5006762;28;20096;-74
2021/03/04 03:19:24;;;;;;;234.07;69.53;;;;;;;4.10;96.84;102333.22;5004735;28;20037;-74
2021/03/04 03:21:50;;;;;;;244.13;73.15;;;;;;;3.97;97.66;102325.06;5007540;28;20116;-75
2021/03/04 03:24:16;;;;;;;238.02;68.07;;;;;;;4.01;98.12;102330.16;5006110;28;20156;-75
2021/03/04 03:26:41;;;;;;;231.38;67.63;;;;;;;4.03;98.54;102325.66;5007032;28;20096;-75
2021/03/04 03:29:06;;;;;;;227.27;67.60;;;;;;;3.89;98.03;102308.69;5006413;28;20026;-73
2021/03/04 03:31:34;;;;;;;241.32;72.07;;;;;;;4.01;98.51;102335.44;5009159;28;20026;-74
2021/03/04 03:34:01;;;;;;;230.55;69.82;;;;;;;4.09;98.01;102320.94;5003203;28;20022;-75
2021/03/04 03:36:28;;;;;;;233.18;70.97;;;;;;;4.07;97.63;102314.03;5005917;28;20040;-75
2021/03/04 03:38:56;;;;;;;233.88;68.45;;;;;;;4.05;97.42;102303.56;5002488;28;20084;-75
2021/03/04 03:41:24;;;;;;;216.95;68.40;;;;;;;4.01;97.44;102306.38;5008790;28;20029;-75
2021/03/04 03:43:50;;;;;;;211.95;69.53;;;;;;;4.02;98.07;102302.81;5008108;28;20025;-75
2021/03/04 03:46:16;;;;;;;216.45;70.95;;;;;;;4.02;97.75;102308.09;5007071;28;20496;-75
2021/03/04 03:48:43;;;;;;;210.77;68.07;;;;;;;3.66;97.29;102265.78;5006990;28;20129;-74
2021/03/04 03:51:10;;;;;;;208.93;67.60;;;;;;;3.99;97.32;102319.69;5009388;28;20055;-75
2021/03/04 03:53:36;;;;;;;216.80;68.90;;;;;;;3.98;97.56;102321.47;5005900;28;20798;-75
2021/03/04 03:56:03;;;;;;;213.05;69.63;;;;;;;3.98;97.68;102323.25;5003766;28;20104;-75
2021/03/04 03:58:29;;;;;;;205.02;68.60;;;;;;;4.01;97.48;102317.81;4996784;28;20160;-75
2021/03/04 04:00:56;;;;;;;198.27;66.97;;;;;;;4.01;97.16;102322.25;5007893;28;20456;-74
2021/03/04 04:03:23;;;;;;;200.57;63.10;;;;;;;4.05;97.46;102337.91;5018959;28;20168;-75
2021/03/04 04:05:49;;;;;;;179.23;63.42;;;;;;;4.10;97.05;102332.38;5003653;28;20037;-74
2021/03/04 04:08:16;;;;;;;158.18;58.95;;;;;;;4.08;97.30;102329.78;5003443;28;20022;-75
2021/03/04 04:10:45;;;;;;;160.73;61.38;;;;;;;4.06;96.95;102330.81;5005114;28;20132;-74
2021/03/04 04:13:11;;;;;;;163.52;60.30;;;;;;;3.65;96.97;102271.97;5003516;28;20029;-74
2021/03/04 04:15:37;;;;;;;158.65;58.13;;;;;;;3.99;96.65;102335.53;5000910;28;20040;-75
2021/03/04 04:18:02;;;;;;;163.05;61.58;;;;;;;3.95;96.72;102329.53;5004175;28;20022;-75
2021/03/04 04:20:28;;;;;;;163.35;60.38;;;;;;;3.92;96.95;102320.91;5004777;28;20025;-75
2021/03/04 04:22:56;;;;;;;152.05;59.33;;;;;;;3.89;96.83;102321.06;5004189;28;20037;-74
2021/03/04 04:25:24;;;;;;;146.43;55.90;;;;;;;3.86;97.06;102308.00;5002357;28;20032;-75
2021/03/04 04:27:50;;;;;;;;;;;;;;;3.85;96.42;102304.50;5005200;28;20049;-75
2021/03/04 04:30:17;;;;;;;125.10;49.20;;;;;;;3.81;97.10;102295.00;5003953;28;19921;-75
2021/03/04 04:32:43;;;;;;;137.93;51.65;;;;;;;3.56;97.16;102261.00;5003667;28;20663;-75
2021/03/04 04:35:09;;;;;;;136.93;49.60;;;;;;;3.75;97.23;102297.94;5001507;28;20040;-75
2021/03/04 04:37:34;;;;;;;123.50;49.65;;;;;;;3.73;97.27;102295.38;5005104;28;20037;-75
2021/03/04 04:39:59;;;;;;;123.50;49.20;;;;;;;3.71;97.55;102291.94;4998603;28;20038;-75
2021/03/04 04:42:25;;;;;;;127.60;49.95;;;;;;;3.33;97.11;102224.19;4999285;28;20026;-75
2021/03/04 04:44:50;;;;;;;121.25;48.65;;;;;;;3.53;96.93;102264.63;4993980;28;20034;-75
2021/03/04 04:47:16;;;;;;;127.18;50.03;;;;;;;3.63;97.60;102292.31;5003679;28;20030;-75
2021/03/04 04:49:42;;;;;;;117.80;48.33;;;;;;;3.64;97.61;102301.94;5002176;28;20412;-75
2021/03/04 04:52:07;;;;;;;113.05;46.03;;;;;;;3.42;97.63;102266.94;5004357;28;20026;-75
2021/03/04 04:54:33;;;;;;;118.07;48.10;;;;;;;3.70;97.39;102311.34;5002410;28;20056;-75
2021/03/04 04:56:58;;;;;;;117.97;49.45;;;;;;;3.70;97.52;102303.44;5000468;28;20033;-75
2021/03/04 04:59:24;;;;;;;111.45;49.33;;;;;;;3.72;97.53;102306.88;5002003;28;20121;-75
2021/03/04 05:01:49;;;;;;;120.38;50.22;;;;;;;3.67;96.59;102282.44;5004455;28;20041;-75
2021/03/04 05:04:14;;;;;;;108.65;47.08;;;;;;;3.73;96.76;102292.72;5001804;28;20030;-75
2021/03/04 05:06:40;;;;;;;112.30;47.10;;;;;;;3.75;96.89;102292.66;5000462;28;20037;-75
2021/03/04 05:09:05;;;;;;;105.93;47.92;;;;;;;3.74;96.82;102299.72;5003910;28;20233;-75
2021/03/04 05:11:31;;;;;;;108.20;46.20;;;;;;;3.77;96.21;102296.94;5004015;28;20030;-75
2021/03/04 05:13:56;;;;;;;105.25;46.47;;;;;;;3.77;95.75;102288.16;5000070;28;20510;-75
2021/03/04 05:16:22;;;;;;;100.85;44.38;;;;;;;3.79;96.31;102289.81;5002513;28;20076;-75
2021/03/04 05:18:47;;;;;;;102.63;47.28;;;;;;;3.83;96.00;102294.00;5001571;28;20030;-75
2021/03/04 05:21:13;;;;;;;102.10;46.53;;;;;;;3.83;95.17;102294.00;5001221;28;20033;-74
2021/03/04 05:23:38;;;;;;;98.63;44.80;;;;;;;3.61;94.17;102251.06;5002055;28;20018;-75
2021/03/04 05:26:03;;;;;;;100.13;46.38;;;;;;;3.80;94.19;102285.38;4999253;28;20538;-75
2021/03/04 05:28:29;;;;;;;98.82;45.45;;;;;;;3.80;94.13;102286.22;5003604;28;20040;-75
2021/03/04 05:30:54;;;;;;;100.28;44.08;;;;;;;3.79;93.86;102281.03;5002361;28;20030;-75
2021/03/04 05:33:20;;;;;;;98.90;42.78;;;;;;;3.74;93.91;102272.44;5002707;28;20104;-75
2021/03/04 05:35:46;;;;;;;107.47;46.13;;;;;;;3.76;93.92;102271.47;5002049;28;20040;-74
2021/03/04 05:38:11;;;;;;;100.35;42.83;;;;;;;3.73;93.31;102263.69;5000148;28;20480;-75
2021/03/04 05:40:38;;;;;;;100.63;45.50;;;;;;;3.76;93.76;102265.31;5002876;28;20112;-75
2021/03/04 05:43:04;;;;;;;91.20;42.03;;;;;;;3.80;92.80;102266.88;5000436;28;20033;-75
2021/03/04 05:45:30;;;;;;;92.35;42.92;;;;;;;3.74;92.94;102254.84;4997926;28;20022;-75
2021/03/04 05:47:56;;;;;;;97.43;42.60;;;;;;;3.61;93.07;102240.53;5000164;28;20109;-75
2021/03/04 05:50:26;;;;;;;100.25;43.03;;;;;;;3.70;93.50;102255.06;5001521;28;20036;-75
2021/03/04 05:52:59;;;;;;;104.70;44.53;;;;;;;3.65;94.43;102256.13;5000656;28;20042;-74
2021/03/04 05:55:25;;;;;;;95.30;42.55;;;;;;;3.68;94.12;102248.06;4999708;28;20237;-75
2021/03/04 05:57:51;;;;;;;96.68;43.58;;;;;;;3.63;93.46;102225.47;5002300;28;20044;-75
2021/03/04 06:00:17;;;;;;;98.95;43.53;;;;;;;3.78;93.00;102242.34;5002088;28;20500;-75
2021/03/04 06:02:43;;;;;;;101.00;42.65;;;;;;;3.76;93.05;102239.78;5000401;28;20026;-74
2021/03/04 06:05:12;;;;;;;98.28;42.60;;;;;;;3.71;92.49;102228.56;4998794;28;20093;-74
2021/03/04 06:07:38;;;;;;;96.32;41.65;;;;;;;3.39;92.69;102201.97;5002979;28;20032;-74
2021/03/04 06:10:04;;;;;;;107.22;43.72;;;;;;;3.61;93.55;102248.44;5001814;28;20025;-74
2021/03/04 06:12:30;;;;;;;111.65;45.42;;;;;;;3.38;93.54;102216.09;4995587;28;20029;-75
2021/03/04 06:14:55;;;;;;;100.78;41.42;;;;;;;3.57;93.69;102241.59;5003664;28;20034;-74
2021/03/04 06:17:21;;;;;;;100.03;41.75;;;;;;;3.63;93.20;102243.94;5003556;28;20022;-74
2021/03/04 06:20:14;;;;;;;100.07;41.17;;;;;;;3.61;93.54;102241.34;5005082;28;20030;-75
2021/03/04 06:22:46;;;;;;;94.82;40.38;;;;;;;3.59;93.44;102247.66;5003647;28;20057;-74
2021/03/04 06:25:12;;;;;;;104.30;41.58;;;;;;;3.57;94.22;102247.72;4998921;28;20029;-74
2021/03/04 06:27:40;;;;;;;100.75;42.03;;;;;;;3.29;93.56;102212.09;5006004;28;20117;-74
2021/03/04 06:30:10;;;;;;;107.50;44.17;;;;;;;3.44;94.15;102236.03;5004419;28;20479;-75
2021/03/04 06:32:37;;;;;;;106.55;42.35;;;;;;;3.35;94.65;102230.25;5003616;28;20091;-75
2021/03/04 06:35:04;;;;;;;103.70;41.17;;;;;;;3.51;94.22;102262.09;5003525;28;20071;-74
2021/03/04 06:37:30;;;;;;;99.18;41.10;;;;;;;3.55;93.76;102264.56;5004185;28;20026;-74
2021/03/04 06:39:56;;;;;;;102.82;42.13;;;;;;;3.13;93.95;102196.09;4999844;28;20156;-74
2021/03/04 06:42:25;;;;;;;101.20;40.95;;;;;;;3.54;94.18;102274.28;4999614;28;20034;-73
2021/03/04 06:44:53;;;;;;;103.13;41.38;;;;;;;3.50;94.05;102263.00;5000000;28;20017;-74
2021/03/04 06:47:24;;;;;;;105.10;42.72;;;;;;;3.55;94.76;102270.69;5003608;28;20857;-74
2021/03/04 06:49:51;;;;;;;104.28;42.05;;;;;;;3.59;94.58;102263.50;4999999;28;20085;-73
2021/03/04 06:52:27;;;;;;;104.50;42.60;;;;;;;3.65;94.19;102266.69;4994016;28;20045;-73
2021/03/04 06:54:54;;;;;;;105.55;44.17;;;;;;;3.58;94.54;102252.09;4995393;28;20069;-72
2021/03/04 06:57:21;;;;;;;103.18;42.38;;;;;;;3.67;93.90;102267.47;4990939;28;20026;-72
2021/03/04 06:59:48;;;;;;;111.93;45.40;;;;;;;3.69;94.29;102262.13;5000940;28;20034;-72
2021/03/04 07:02:29;;;;;;;112.97;45.75;;;;;;;3.65;93.76;102256.13;5000366;28;20048;-73
2021/03/04 07:05:00;;;;;;;115.35;45.28;;;;;;;3.56;93.89;102234.59;4996308;28;20582;-73
2021/03/04 07:07:27;;;;;;;117.93;45.42;;;;;;;3.70;93.81;102271.75;4999684;28;20045;-73
2021/03/04 07:09:56;;;;;;;120.13;44.58;;;;;;;3.71;94.00;102280.53;4991722;28;20029;-72
2021/03/04 07:12:22;;;;;;;128.63;47.15;;;;;;;3.66;94.17;102286.88;4995256;28;20048;-73
2021/03/04 07:14:51;;;;;;;119.65;44.50;;;;;;;3.62;94.58;102279.19;4996884;28;20492;-72
2021/03/04 07:17:18;;;;;;;;;;;;;;;3.63;94.51;102287.03;4994839;28;20072;-72
2021/03/04 07:19:56;;;;;;;118.53;41.38;;;;;;;3.65;94.31;102281.69;5007841;28;20406;-72
2021/03/04 07:22:25;;;;;;;118.70;42.78;;;;;;;3.62;94.70;102281.81;5014548;28;20076;-71
2021/03/04 07:24:51;;;;;;;127.07;44.35;;;;;;;3.60;94.80;102288.97;5013343;28;20345;-72
2021/03/04 07:27:17;;;;;;;122.40;44.28;;;;;;;3.58;95.24;102289.03;5000679;28;20061;-72
2021/03/04 07:29:44;;;;;;;122.53;43.45;;;;;;;3.42;95.52;102261.66;5004851;28;20045;-73
2021/03/04 07:32:11;;;;;;;127.72;44.30;;;;;;;3.50;95.59;102262.13;5000637;28;20072;-79
2021/03/04 07:34:39;;;;;;;125.38;44.50;;;;;;;3.71;96.02;102276.09;5013450;28;20029;-72
2021/03/04 07:37:05;;;;;;;126.95;45.22;;;;;;;3.75;95.04;102280.31;5000975;28;20034;-72
2021/03/04 07:39:36;;;;;;;115.82;43.25;;;;;;;3.63;95.07;102244.78;5007309;28;20096;-72
2021/03/04 07:42:02;;;;;;;114.13;42.63;;;;;;;3.81;94.30;102280.00;5002230;28;20030;-73
2021/03/04 07:44:32;;;;;;;110.20;40.53;;;;;;;3.80;94.47;102270.38;5004561;28;20412;-72
2021/03/04 07:47:00;;;;;;;103.47;39.28;;;;;;;3.62;94.03;102248.34;5007133;28;20030;-72
2021/03/04 07:49:33;;;;;;;107.97;40.30;;;;;;;3.82;93.83;102275.59;5010339;28;20054;-72
2021/03/04 07:52:12;;;;;;;116.75;41.72;;;;;;;3.82;93.55;102279.09;4999871;28;20034;-72
2021/03/04 07:54:42;;;;;;;124.07;42.60;;;;;;;3.82;93.92;102273.81;5001792;28;20491;-72
2021/03/04 07:57:12;;;;;;;128.30;43.92;;;;;;;3.80;94.25;102270.38;4996061;28;20124;-72
2021/03/04 08:00:08;;;;;;;123.78;42.47;;;;;;;3.65;94.02;102237.66;4997244;28;20041;-72
2021/03/04 08:02:35;;;;;;;119.03;39.92;;;;;;;3.83;93.90;102269.41;4998309;28;20080;-72
2021/03/04 08:05:10;;;;;;;126.78;42.90;;;;;;;3.26;94.04;102155.97;4995470;28;20046;-72
2021/03/04 08:07:36;;;;;;;151.98;44.05;;;;;;;3.85;93.66;102266.66;5014871;28;20129;-72
2021/03/04 08:10:13;;;;;;;123.90;42.90;;;;;;;3.83;94.07;102272.03;5001931;28;20034;-72
2021/03/04 08:12:51;;;;;;;118.20;41.78;;;;;;;3.80;94.80;102272.16;4983059;28;20135;-72
2021/03/04 08:15:19;;;;;;;127.90;42.67;;;;;;;3.70;94.72;102257.72;5012035;28;20607;-72
2021/03/04 08:17:45;;;;;;;125.97;43.20;;;;;;;2.72;94.65;102104.81;4997045;28;20065;-72
2021/03/04 08:20:16;;;;;;;129.13;42.78;;;;;;;3.79;95.13;102273.09;4997692;28;20030;-72
2021/03/04 08:22:46;;;;;;;129.18;41.05;;;;;;;3.79;94.84;102275.75;4999779;28;20029;-72
2021/03/04 08:25:17;;;;;;;135.68;43.40;;;;;;;3.75;95.46;102266.25;4993451;28;20029;-72
2021/03/04 08:27:43;;;;;;;132.45;43.63;;;;;;;3.35;95.86;102214.41;4999534;28;20037;-72
2021/03/04 08:30:09;;;;;;;131.05;42.15;;;;;;;3.72;95.24;102269.06;4998755;28;20026;-72
2021/03/04 08:32:38;;;;;;;127.30;41.00;;;;;;;3.83;95.01;102266.75;5000074;28;20903;-73
2021/03/04 08:35:15;;;;;;;119.75;41.08;;;;;;;3.85;94.35;102258.75;4996522;28;20350;-72
2021/03/04 08:37:41;;;;;;;126.88;42.08;;;;;;;3.83;94.98;102259.66;4998150;28;20422;-72
2021/03/04 08:40:07;;;;;;;132.60;41.60;;;;;;;3.78;95.36;102251.13;5001670;28;20032;-72
2021/03/04 08:42:32;;;;;;;120.95;41.78;;;;;;;3.86;94.58;102257.81;4999683;28;20064;-72
2021/03/04 08:44:58;;;;;;;124.38;40.95;;;;;;;3.81;94.61;102255.41;4995611;28;20087;-72
2021/03/04 08:47:23;;;;;;;131.55;41.50;;;;;;;3.69;95.08;102225.16;4998411;28;20436;-72
2021/03/04 08:49:51;;;;;;;111.55;39.25;;;;;;;3.88;94.92;102251.50;5001782;28;21465;-73
2021/03/04 08:52:25;;;;;;;122.50;40.20;;;;;;;3.72;94.52;102211.81;5000289;28;20025;-72
2021/03/04 08:54:54;;;;;;;117.72;39.85;;;;;;;3.78;94.17;102218.56;4998761;28;20436;-72
2021/03/04 08:57:22;;;;;;;106.45;38.92;;;;;;;3.91;93.95;102248.72;4999809;28;20042;-72
2021/03/04 08:59:47;;;;;;;108.57;38.67;;;;;;;3.95;94.31;102247.66;4998610;28;20033;-72
2021/03/04 09:02:14;;;;;;;94.97;35.72;;;;;;;4.00;94.52;102238.66;4998346;28;20041;-72
2021/03/04 09:04:39;;;;;;;98.45;34.15;;;;;;;4.03;94.38;102235.84;4994732;28;20184;-72
2021/03/04 09:07:05;;;;;;;93.63;35.70;;;;;;;4.07;93.79;102243.53;4991815;28;20527;-72
2021/03/04 09:09:31;;;;;;;93.63;35.22;;;;;;;3.80;93.92;102190.31;5000083;28;20074;-72
2021/03/04 09:11:58;;;;;;;101.32;36.72;;;;;;;4.13;93.52;102242.41;4998976;28;20117;-72
2021/03/04 09:14:31;;;;;;;95.93;36.35;;;;;;;4.16;93.28;102236.94;4998787;28;20065;-72
2021/03/04 09:16:58;;;;;;;94.82;37.22;;;;;;;4.17;93.30;102240.47;4996283;28;20037;-72
2021/03/04 09:19:29;;;;;;;97.28;37.10;;;;;;;4.22;93.39;102239.28;4997681;28;20034;-72
2021/03/04 09:21:57;;;;;;;109.85;38.42;;;;;;;4.25;93.73;102243.56;4998533;28;20029;-74
2021/03/04 09:24:23;;;;;;;95.13;36.78;;;;;;;4.29;93.44;102253.06;4997522;28;20565;-76
2021/03/04 09:26:48;;;;;;;90.68;33.97;;;;;;;4.33;92.73;102249.34;4996103;28;20033;-73
2021/03/04 09:29:14;;;;;;;81.55;32.55;;;;;;;4.35;93.40;102250.09;4999679;28;20036;-72
2021/03/04 09:31:53;;;;;;;91.20;35.63;;;;;;;4.39;93.08;102249.00;4999788;28;20044;-72
2021/03/04 09:34:29;;;;;;;84.40;33.40;;;;;;;4.38;92.74;102236.72;4999648;28;20022;-72
2021/03/04 09:37:04;;;;;;;90.38;34.17;;;;;;;4.40;93.14;102250.72;4996933;28;20068;-72
2021/03/04 09:39:44;;;;;;;87.78;34.63;;;;;;;4.37;93.13;102250.88;4993035;28;20034;-73
2021/03/04 09:42:14;;;;;;;80.55;32.65;;;;;;;4.32;93.37;102236.19;4996485;28;20029;-72
2021/03/04 09:44:53;;;;;;;87.88;33.58;;;;;;;4.45;93.83;102245.19;4996851;28;20038;-71
2021/03/04 09:47:19;;;;;;;;;;;;;;;4.43;93.44;102247.91;4997753;28;20116;-72
2021/03/04 09:49:45;;;;;;;84.88;32.25;;;;;;;4.21;93.20;102216.44;4994866;28;19968;-72
2021/03/04 09:52:27;;;;;;;85.35;32.85;;;;;;;4.47;93.64;102245.13;4997220;28;20034;-71
2021/03/04 09:55:08;;;;;;;75.68;32.08;;;;;;;4.46;94.00;102231.03;4995365;28;20073;-72
2021/03/04 09:57:38;;;;;;;61.90;25.77;;;;;;;4.40;93.05;102219.00;4997768;28;20034;-72
2021/03/04 10:00:07;;;;;;;57.92;24.40;;;;;;;4.52;93.52;102240.44;4980339;28;20030;-72
2021/03/04 10:02:39;;;;;;;;;;;;;;;4.46;93.05;102236.31;4996916;28;20034;-72
2021/03/04 10:05:05;;;;;;;50.13;22.05;;;;;;;4.30;92.62;102204.56;4993260;28;20000;-72
2021/03/04 10:07:31;;;;;;;54.33;23.75;;;;;;;4.42;92.40;102216.25;4993728;28;20026;-72
2021/03/04 10:10:00;;;;;;;48.22;21.83;;;;;;;4.55;92.58;102235.00;4996428;28;20034;-72
2021/03/04 10:12:26;;;;;;;46.97;22.65;;;;;;;4.59;92.27;102232.13;4997093;28;20084;-72
2021/03/04 10:14:53;;;;;;;46.63;21.80;;;;;;;4.61;92.31;102237.34;4995578;28;20505;-72
2021/03/04 10:17:20;;;;;;;45.95;20.42;;;;;;;4.67;92.18;102239.66;4989469;28;20034;-72
2021/03/04 10:19:45;;;;;;;43.55;19.85;;;;;;;4.65;92.18;102246.81;4988440;28;20089;-72
2021/03/04 10:22:11;;;;;;;41.33;21.02;;;;;;;4.64;92.02;102242.44;4993901;28;20095;-72
2021/03/04 10:24:37;;;;;;;44.47;20.13;;;;;;;4.64;92.68;102231.88;4996601;28;20030;-72
2021/03/04 10:27:05;;;;;;;39.83;18.00;;;;;;;4.64;92.94;102247.72;4991742;28;20040;-72
2021/03/04 10:29:31;;;;;;;43.03;20.83;;;;;;;4.44;92.64;102212.63;4997029;28;20109;-72
2021/03/04 10:31:57;;;;;;;39.45;19.95;;;;;;;4.69;93.10;102243.06;4993773;28;20888;-72
2021/03/04 10:34:23;;;;;;;40.40;19.65;;;;;;;4.62;93.31;102227.59;4993214;28;20111;-72
2021/03/04 10:36:50;;;;;;;37.03;17.58;;;;;;;4.77;92.90;102242.66;4992374;28;20049;-72
2021/03/04 10:39:19;;;;;;;24.83;13.45;;;;;;;4.70;92.55;102233.34;4998844;28;20469;-72
2021/03/04 10:41:46;;;;;;;19.23;10.27;;;;;;;4.40;91.86;102199.66;4999184;28;20032;-72
2021/03/04 10:44:14;;;;;;;18.55;9.75;;;;;;;4.56;92.25;102242.00;5003861;28;20029;-72
2021/03/04 10:46:40;;;;;;;17.48;10.30;;;;;;;4.49;92.16;102245.88;5002997;28;20050;-71
2021/03/04 10:49:07;;;;;;;18.25;11.23;;;;;;;4.42;91.97;102246.22;5003163;28;20046;-71
2021/03/04 10:51:34;;;;;;;16.95;10.50;;;;;;;4.42;90.98;102246.22;5003140;28;20125;-71
2021/03/04 10:54:00;;;;;;;17.88;10.82;;;;;;;4.36;91.42;102250.94;5001302;28;20233;-72
2021/03/04 10:56:25;;;;;;;26.10;14.73;;;;;;;4.31;91.44;102252.97;4998557;28;20097;-72
2021/03/04 10:58:51;;;;;;;26.38;15.95;;;;;;;4.21;91.23;102236.72;5000364;28;20022;-71
2021/03/04 11:01:17;;;;;;;27.13;16.25;;;;;;;4.10;91.59;102229.34;4999856;28;20022;-71
2021/03/04 11:03:42;;;;;;;29.67;15.65;;;;;;;4.24;91.47;102257.69;4991080;28;20481;-72
2021/03/04 11:06:10;;;;;;;26.20;14.85;;;;;;;4.17;91.91;102264.25;4995710;28;20034;-71
2021/03/04 11:08:36;;;;;;;21.00;12.88;;;;;;;4.22;92.01;102262.19;5000230;28;20041;-71
2021/03/04 11:11:02;;;;;;;23.85;13.90;;;;;;;4.22;90.92;102264.84;4998044;28;20033;-71
2021/03/04 11:13:27;;;;;;;23.42;13.48;;;;;;;4.29;90.51;102264.47;5006891;28;20038;-72